sensor_id;sensor_type;location;lat;lon;timestamp;pressure;altitude;pressure_sealevel;temperature;humidity
77323;BME280;66384;51.052;9.850;2023-03-01T00:01:55;99832.59;;;-2.18;61.00
77323;BME280;66384;51.052;9.850;2023-03-01T00:04:24;99831.36;;;-2.20;61.14
77323;BME280;66384;51.052;9.850;2023-03-01T00:06:53;99835.48;;;-2.21;61.53
77323;BME280;66384;51.052;9.850;2023-03-01T00:09:22;99835.20;;;-2.21;61.28
77323;BME280;66384;51.052;9.850;2023-03-01T00:11:52;99834.05;;;-2.20;61.13
77323;BME280;66384;51.052;9.850;2023-03-01T00:14:21;99830.94;;;-2.25;61.10
77323;BME280;66384;51.052;9.850;2023-03-01T00:16:51;99828.39;;;-2.27;61.31
77323;BME280;66384;51.052;9.850;2023-03-01T00:19:21;99829.73;;;-2.27;61.18
77323;BME280;66384;51.052;9.850;2023-03-01T00:21:51;99824.14;;;-2.29;61.13
77323;BME280;66384;51.052;9.850;2023-03-01T00:24:20;99826.06;;;-2.30;61.15
77323;BME280;66384;51.052;9.850;2023-03-01T00:26:49;99825.22;;;-2.32;61.07
77323;BME280;66384;51.052;9.850;2023-03-01T00:29:21;99831.14;;;-2.34;61.35
77323;BME280;66384;51.052;9.850;2023-03-01T00:31:50;99832.54;;;-2.37;61.33
77323;BME280;66384;51.052;9.850;2023-03-01T00:34:20;99828.20;;;-2.40;61.28
77323;BME280;66384;51.052;9.850;2023-03-01T00:36:49;99823.39;;;-2.41;61.46
77323;BME280;66384;51.052;9.850;2023-03-01T00:39:18;99825.74;;;-2.43;61.35
77323;BME280;66384;51.052;9.850;2023-03-01T00:41:47;99829.31;;;-2.46;61.51
77323;BME280;66384;51.052;9.850;2023-03-01T00:44:17;99826.40;;;-2.48;61.27
77323;BME280;66384;51.052;9.850;2023-03-01T00:46:46;99824.54;;;-2.50;61.16
77323;BME280;66384;51.052;9.850;2023-03-01T00:49:16;99812.41;;;-2.52;61.22
77323;BME280;66384;51.052;9.850;2023-03-01T00:51:45;99809.54;;;-2.54;61.20
77323;BME280;66384;51.052;9.850;2023-03-01T00:54:14;99812.27;;;-2.55;61.37
77323;BME280;66384;51.052;9.850;2023-03-01T00:56:43;99815.17;;;-2.56;61.21
77323;BME280;66384;51.052;9.850;2023-03-01T00:59:13;99812.61;;;-2.60;61.28
77323;BME280;66384;51.052;9.850;2023-03-01T01:01:42;99815.03;;;-2.63;61.12
77323;BME280;66384;51.052;9.850;2023-03-01T01:04:13;99817.55;;;-2.66;61.31
77323;BME280;66384;51.052;9.850;2023-03-01T01:06:44;99820.34;;;-2.69;61.27
77323;BME280;66384;51.052;9.850;2023-03-01T01:09:15;99821.67;;;-2.71;61.31
77323;BME280;66384;51.052;9.850;2023-03-01T01:11:47;99820.81;;;-2.75;61.27
77323;BME280;66384;51.052;9.850;2023-03-01T01:14:18;99820.38;;;-2.80;61.54
77323;BME280;66384;51.052;9.850;2023-03-01T01:16:48;99816.29;;;-2.83;61.74
77323;BME280;66384;51.052;9.850;2023-03-01T01:19:17;99812.86;;;-2.93;61.92
77323;BME280;66384;51.052;9.850;2023-03-01T01:21:47;99814.58;;;-2.98;61.92
77323;BME280;66384;51.052;9.850;2023-03-01T01:24:17;99818.55;;;-2.98;61.97
77323;BME280;66384;51.052;9.850;2023-03-01T01:26:46;99815.45;;;-2.98;61.71
77323;BME280;66384;51.052;9.850;2023-03-01T01:29:16;99804.80;;;-2.94;61.79
77323;BME280;66384;51.052;9.850;2023-03-01T01:31:45;99800.49;;;-2.90;62.02
77323;BME280;66384;51.052;9.850;2023-03-01T01:34:17;99795.99;;;-2.85;61.91
77323;BME280;66384;51.052;9.850;2023-03-01T01:36:51;99791.05;;;-2.83;61.73
77323;BME280;66384;51.052;9.850;2023-03-01T01:39:21;99792.17;;;-2.81;61.67
77323;BME280;66384;51.052;9.850;2023-03-01T01:41:50;99789.19;;;-2.77;61.49
77323;BME280;66384;51.052;9.850;2023-03-01T01:44:21;99781.23;;;-2.73;61.42
77323;BME280;66384;51.052;9.850;2023-03-01T01:46:54;99784.55;;;-2.70;61.33
77323;BME280;66384;51.052;9.850;2023-03-01T01:49:31;99780.17;;;-2.66;61.18
77323;BME280;66384;51.052;9.850;2023-03-01T01:52:09;99769.98;;;-2.66;60.98
77323;BME280;66384;51.052;9.850;2023-03-01T01:54:44;99760.96;;;-2.61;61.08
77323;BME280;66384;51.052;9.850;2023-03-01T01:57:18;99752.30;;;-2.57;60.80
77323;BME280;66384;51.052;9.850;2023-03-01T01:59:52;99752.65;;;-2.53;60.63
77323;BME280;66384;51.052;9.850;2023-03-01T02:02:22;99745.81;;;-2.53;60.45
77323;BME280;66384;51.052;9.850;2023-03-01T02:04:58;99742.91;;;-2.55;60.48
77323;BME280;66384;51.052;9.850;2023-03-01T02:07:31;99748.09;;;-2.57;60.38
77323;BME280;66384;51.052;9.850;2023-03-01T02:10:01;99743.88;;;-2.61;60.49
77323;BME280;66384;51.052;9.850;2023-03-01T02:12:31;99744.73;;;-2.64;60.57
77323;BME280;66384;51.052;9.850;2023-03-01T02:15:02;99748.13;;;-2.69;60.77
77323;BME280;66384;51.052;9.850;2023-03-01T02:17:31;99748.70;;;-2.75;60.66
77323;BME280;66384;51.052;9.850;2023-03-01T02:20:10;99745.35;;;-2.84;60.93
77323;BME280;66384;51.052;9.850;2023-03-01T02:22:45;99753.14;;;-2.89;61.11
77323;BME280;66384;51.052;9.850;2023-03-01T02:25:24;99753.86;;;-2.92;61.12
77323;BME280;66384;51.052;9.850;2023-03-01T02:28:00;99755.51;;;-2.96;61.20
77323;BME280;66384;51.052;9.850;2023-03-01T02:30:33;99754.39;;;-2.99;61.27
77323;BME280;66384;51.052;9.850;2023-03-01T02:33:04;99755.63;;;-3.00;61.30
77323;BME280;66384;51.052;9.850;2023-03-01T02:35:35;99758.01;;;-3.01;61.24
77323;BME280;66384;51.052;9.850;2023-03-01T02:38:08;99753.11;;;-3.02;61.33
77323;BME280;66384;51.052;9.850;2023-03-01T02:40:39;99748.21;;;-3.04;61.29
77323;BME280;66384;51.052;9.850;2023-03-01T02:43:08;99743.55;;;-3.07;61.30
77323;BME280;66384;51.052;9.850;2023-03-01T02:45:37;99740.40;;;-3.11;61.33
77323;BME280;66384;51.052;9.850;2023-03-01T02:48:12;99737.44;;;-3.14;61.51
77323;BME280;66384;51.052;9.850;2023-03-01T02:50:55;99734.02;;;-3.16;61.54
77323;BME280;66384;51.052;9.850;2023-03-01T02:53:35;99732.90;;;-3.21;61.90
77323;BME280;66384;51.052;9.850;2023-03-01T02:56:08;99733.25;;;-3.25;62.05
77323;BME280;66384;51.052;9.850;2023-03-01T02:58:41;99731.95;;;-3.27;62.23
77323;BME280;66384;51.052;9.850;2023-03-01T03:01:16;99727.36;;;-3.28;62.30
77323;BME280;66384;51.052;9.850;2023-03-01T03:03:45;99729.31;;;-3.29;62.15
77323;BME280;66384;51.052;9.850;2023-03-01T03:06:15;99727.91;;;-3.31;62.15
77323;BME280;66384;51.052;9.850;2023-03-01T03:08:44;99722.75;;;-3.30;62.17
77323;BME280;66384;51.052;9.850;2023-03-01T03:11:13;99718.45;;;-3.30;62.40
77323;BME280;66384;51.052;9.850;2023-03-01T03:13:43;99719.84;;;-3.29;62.29
77323;BME280;66384;51.052;9.850;2023-03-01T03:16:15;99726.58;;;-3.29;62.47
77323;BME280;66384;51.052;9.850;2023-03-01T03:18:45;99721.41;;;-3.30;62.39
77323;BME280;66384;51.052;9.850;2023-03-01T03:21:14;99719.66;;;-3.29;62.34
77323;BME280;66384;51.052;9.850;2023-03-01T03:23:44;99716.66;;;-3.29;62.43
77323;BME280;66384;51.052;9.850;2023-03-01T03:26:14;99716.98;;;-3.31;62.41
77323;BME280;66384;51.052;9.850;2023-03-01T03:28:43;99724.75;;;-3.32;62.42
77323;BME280;66384;51.052;9.850;2023-03-01T03:31:12;99721.23;;;-3.34;62.53
77323;BME280;66384;51.052;9.850;2023-03-01T03:33:42;99718.19;;;-3.34;62.50
77323;BME280;66384;51.052;9.850;2023-03-01T03:36:17;99714.00;;;-3.34;62.47
77323;BME280;66384;51.052;9.850;2023-03-01T03:38:46;99714.80;;;-3.34;62.55
77323;BME280;66384;51.052;9.850;2023-03-01T03:41:17;99709.96;;;-3.35;62.59
77323;BME280;66384;51.052;9.850;2023-03-01T03:43:47;99711.77;;;-3.34;62.55
77323;BME280;66384;51.052;9.850;2023-03-01T03:46:16;99707.88;;;-3.35;62.60
77323;BME280;66384;51.052;9.850;2023-03-01T03:48:46;99707.64;;;-3.35;62.67
77323;BME280;66384;51.052;9.850;2023-03-01T03:51:18;99699.27;;;-3.38;62.66
77323;BME280;66384;51.052;9.850;2023-03-01T03:53:47;99694.50;;;-3.39;62.94
77323;BME280;66384;51.052;9.850;2023-03-01T03:56:17;99694.64;;;-3.39;62.83
77323;BME280;66384;51.052;9.850;2023-03-01T03:58:46;99692.28;;;-3.39;62.70
77323;BME280;66384;51.052;9.850;2023-03-01T04:01:16;99688.81;;;-3.41;62.83
77323;BME280;66384;51.052;9.850;2023-03-01T04:03:45;99687.17;;;-3.41;62.81
77323;BME280;66384;51.052;9.850;2023-03-01T04:06:15;99688.86;;;-3.41;62.85
77323;BME280;66384;51.052;9.850;2023-03-01T04:08:44;99688.51;;;-3.42;62.91
77323;BME280;66384;51.052;9.850;2023-03-01T04:11:14;99691.21;;;-3.42;63.05
77323;BME280;66384;51.052;9.850;2023-03-01T04:13:56;99689.32;;;-3.42;63.03
77323;BME280;66384;51.052;9.850;2023-03-01T04:16:26;99684.77;;;-3.42;63.02
77323;BME280;66384;51.052;9.850;2023-03-01T04:18:56;99683.23;;;-3.42;63.05
77323;BME280;66384;51.052;9.850;2023-03-01T04:21:27;99684.60;;;-3.44;62.90
77323;BME280;66384;51.052;9.850;2023-03-01T04:23:57;99682.04;;;-3.45;63.10
77323;BME280;66384;51.052;9.850;2023-03-01T04:26:26;99678.02;;;-3.48;62.99
77323;BME280;66384;51.052;9.850;2023-03-01T04:28:56;99678.13;;;-3.52;63.07
77323;BME280;66384;51.052;9.850;2023-03-01T04:31:25;99676.92;;;-3.55;63.09
77323;BME280;66384;51.052;9.850;2023-03-01T04:33:56;99678.01;;;-3.58;63.30
77323;BME280;66384;51.052;9.850;2023-03-01T04:36:27;99672.38;;;-3.61;63.37
77323;BME280;66384;51.052;9.850;2023-03-01T04:38:55;99673.54;;;-3.63;63.36
77323;BME280;66384;51.052;9.850;2023-03-01T04:41:25;99669.61;;;-3.65;63.62
77323;BME280;66384;51.052;9.850;2023-03-01T04:43:55;99671.65;;;-3.67;63.71
77323;BME280;66384;51.052;9.850;2023-03-01T04:46:24;99673.02;;;-3.67;64.00
77323;BME280;66384;51.052;9.850;2023-03-01T04:48:53;99670.87;;;-3.68;63.89
77323;BME280;66384;51.052;9.850;2023-03-01T04:51:23;99667.27;;;-3.69;63.62
77323;BME280;66384;51.052;9.850;2023-03-01T04:53:52;99666.50;;;-3.70;63.73
77323;BME280;66384;51.052;9.850;2023-03-01T04:56:22;99665.30;;;-3.70;63.62
77323;BME280;66384;51.052;9.850;2023-03-01T04:58:54;99669.88;;;-3.71;63.52
77323;BME280;66384;51.052;9.850;2023-03-01T05:01:23;99669.16;;;-3.74;63.45
77323;BME280;66384;51.052;9.850;2023-03-01T05:03:53;99671.33;;;-3.75;63.30
77323;BME280;66384;51.052;9.850;2023-03-01T05:06:22;99674.41;;;-3.78;63.64
77323;BME280;66384;51.052;9.850;2023-03-01T05:08:51;99679.14;;;-3.79;63.49
77323;BME280;66384;51.052;9.850;2023-03-01T05:11:21;99677.58;;;-3.82;63.41
77323;BME280;66384;51.052;9.850;2023-03-01T05:13:50;99680.07;;;-3.84;63.57
77323;BME280;66384;51.052;9.850;2023-03-01T05:16:23;99677.36;;;-3.86;63.43
77323;BME280;66384;51.052;9.850;2023-03-01T05:18:52;99678.90;;;-3.87;63.63
77323;BME280;66384;51.052;9.850;2023-03-01T05:21:24;99673.62;;;-3.88;63.45
77323;BME280;66384;51.052;9.850;2023-03-01T05:23:53;99675.20;;;-3.89;63.62
77323;BME280;66384;51.052;9.850;2023-03-01T05:26:23;99677.27;;;-3.90;63.47
77323;BME280;66384;51.052;9.850;2023-03-01T05:28:56;99674.52;;;-3.91;63.56
77323;BME280;66384;51.052;9.850;2023-03-01T05:31:26;99676.32;;;-3.93;63.42
77323;BME280;66384;51.052;9.850;2023-03-01T05:33:56;99674.80;;;-4.00;63.55
77323;BME280;66384;51.052;9.850;2023-03-01T05:36:25;99675.86;;;-4.06;63.57
77323;BME280;66384;51.052;9.850;2023-03-01T05:38:54;99676.86;;;-4.08;63.82
77323;BME280;66384;51.052;9.850;2023-03-01T05:41:24;99678.05;;;-4.08;63.76
77323;BME280;66384;51.052;9.850;2023-03-01T05:43:53;99673.65;;;-4.08;63.75
77323;BME280;66384;51.052;9.850;2023-03-01T05:46:22;99671.77;;;-4.07;63.75
77323;BME280;66384;51.052;9.850;2023-03-01T05:48:52;99670.69;;;-4.06;63.65
77323;BME280;66384;51.052;9.850;2023-03-01T05:51:22;99670.08;;;-4.05;63.61
77323;BME280;66384;51.052;9.850;2023-03-01T05:53:51;99669.09;;;-4.05;63.40
77323;BME280;66384;51.052;9.850;2023-03-01T05:56:20;99667.25;;;-4.06;63.50
77323;BME280;66384;51.052;9.850;2023-03-01T05:58:51;99665.74;;;-4.06;63.40
77323;BME280;66384;51.052;9.850;2023-03-01T06:01:20;99671.02;;;-4.07;63.23
77323;BME280;66384;51.052;9.850;2023-03-01T06:03:50;99665.92;;;-4.08;63.10
77323;BME280;66384;51.052;9.850;2023-03-01T06:06:19;99661.74;;;-4.12;63.09
77323;BME280;66384;51.052;9.850;2023-03-01T06:08:48;99663.86;;;-4.17;63.14
77323;BME280;66384;51.052;9.850;2023-03-01T06:11:18;99661.05;;;-4.22;62.97
77323;BME280;66384;51.052;9.850;2023-03-01T06:13:48;99660.95;;;-4.25;63.32
77323;BME280;66384;51.052;9.850;2023-03-01T06:16:17;99658.77;;;-4.26;63.25
77323;BME280;66384;51.052;9.850;2023-03-01T06:18:47;99654.41;;;-4.28;63.44
77323;BME280;66384;51.052;9.850;2023-03-01T06:21:16;99655.63;;;-4.27;63.57
77323;BME280;66384;51.052;9.850;2023-03-01T06:23:45;99652.34;;;-4.27;63.71
77323;BME280;66384;51.052;9.850;2023-03-01T06:26:15;99656.25;;;-4.25;63.56
77323;BME280;66384;51.052;9.850;2023-03-01T06:28:44;99655.87;;;-4.23;63.62
77323;BME280;66384;51.052;9.850;2023-03-01T06:31:14;99653.20;;;-4.21;63.56
77323;BME280;66384;51.052;9.850;2023-03-01T06:33:43;99649.15;;;-4.22;64.01
77323;BME280;66384;51.052;9.850;2023-03-01T06:36:13;99651.29;;;-4.19;64.09
77323;BME280;66384;51.052;9.850;2023-03-01T06:38:46;99647.91;;;-4.14;63.91
77323;BME280;66384;51.052;9.850;2023-03-01T06:41:16;99649.70;;;-4.07;63.53
77323;BME280;66384;51.052;9.850;2023-03-01T06:43:45;99651.75;;;-4.02;63.39
77323;BME280;66384;51.052;9.850;2023-03-01T06:46:14;99653.13;;;-3.96;63.29
77323;BME280;66384;51.052;9.850;2023-03-01T06:48:44;99656.48;;;-3.90;63.39
77323;BME280;66384;51.052;9.850;2023-03-01T06:51:13;99655.54;;;-3.82;63.33
77323;BME280;66384;51.052;9.850;2023-03-01T06:53:42;99659.05;;;-3.74;63.35
77323;BME280;66384;51.052;9.850;2023-03-01T06:56:12;99660.11;;;-3.64;63.34
77323;BME280;66384;51.052;9.850;2023-03-01T06:58:41;99659.31;;;-3.57;63.27
77323;BME280;66384;51.052;9.850;2023-03-01T07:01:11;99661.01;;;-3.48;63.23
77323;BME280;66384;51.052;9.850;2023-03-01T07:03:40;99658.56;;;-3.39;63.13
77323;BME280;66384;51.052;9.850;2023-03-01T07:06:10;99652.05;;;-3.31;63.20
77323;BME280;66384;51.052;9.850;2023-03-01T07:08:39;99653.46;;;-3.23;63.13
77323;BME280;66384;51.052;9.850;2023-03-01T07:11:09;99659.29;;;-3.13;63.08
77323;BME280;66384;51.052;9.850;2023-03-01T07:13:39;99660.27;;;-3.04;63.00
77323;BME280;66384;51.052;9.850;2023-03-01T07:16:09;99657.10;;;-2.95;63.06
77323;BME280;66384;51.052;9.850;2023-03-01T07:18:38;99658.73;;;-2.87;63.26
77323;BME280;66384;51.052;9.850;2023-03-01T07:21:08;99661.45;;;-2.80;63.35
77323;BME280;66384;51.052;9.850;2023-03-01T07:23:38;99664.69;;;-2.74;63.38
77323;BME280;66384;51.052;9.850;2023-03-01T07:26:08;99659.52;;;-2.68;63.52
77323;BME280;66384;51.052;9.850;2023-03-01T07:28:37;99656.17;;;-2.62;63.56
77323;BME280;66384;51.052;9.850;2023-03-01T07:31:07;99655.77;;;-2.58;63.55
77323;BME280;66384;51.052;9.850;2023-03-01T07:33:37;99653.85;;;-2.53;63.86
77323;BME280;66384;51.052;9.850;2023-03-01T07:36:08;99651.98;;;-2.49;64.02
77323;BME280;66384;51.052;9.850;2023-03-01T07:38:38;99653.83;;;-2.45;64.21
77323;BME280;66384;51.052;9.850;2023-03-01T07:41:07;99658.12;;;-2.41;64.42
77323;BME280;66384;51.052;9.850;2023-03-01T07:43:37;99659.09;;;-2.36;64.59
77323;BME280;66384;51.052;9.850;2023-03-01T07:46:06;99656.48;;;-2.31;65.03
77323;BME280;66384;51.052;9.850;2023-03-01T07:48:36;99655.46;;;-2.26;65.12
77323;BME280;66384;51.052;9.850;2023-03-01T07:51:07;99653.46;;;-2.20;65.23
77323;BME280;66384;51.052;9.850;2023-03-01T07:53:36;99652.55;;;-2.13;65.13
77323;BME280;66384;51.052;9.850;2023-03-01T07:56:07;99652.83;;;-2.08;65.40
77323;BME280;66384;51.052;9.850;2023-03-01T07:58:39;99651.66;;;-2.03;65.43
77323;BME280;66384;51.052;9.850;2023-03-01T08:01:11;99641.44;;;-1.96;65.48
77323;BME280;66384;51.052;9.850;2023-03-01T08:03:40;99647.33;;;-1.89;65.62
77323;BME280;66384;51.052;9.850;2023-03-01T08:06:12;99649.84;;;-1.82;65.67
77323;BME280;66384;51.052;9.850;2023-03-01T08:08:42;99646.95;;;-1.76;65.53
77323;BME280;66384;51.052;9.850;2023-03-01T08:11:14;99652.95;;;-1.70;65.21
77323;BME280;66384;51.052;9.850;2023-03-01T08:13:46;99650.63;;;-1.61;64.95
77323;BME280;66384;51.052;9.850;2023-03-01T08:16:16;99647.81;;;-1.54;65.48
77323;BME280;66384;51.052;9.850;2023-03-01T08:18:46;99642.37;;;-1.46;65.27
77323;BME280;66384;51.052;9.850;2023-03-01T08:21:16;99644.95;;;-1.38;65.60
77323;BME280;66384;51.052;9.850;2023-03-01T08:23:46;99645.27;;;-1.30;65.35
77323;BME280;66384;51.052;9.850;2023-03-01T08:26:17;99645.61;;;-1.23;65.31
77323;BME280;66384;51.052;9.850;2023-03-01T08:28:47;99643.98;;;-1.17;65.21
77323;BME280;66384;51.052;9.850;2023-03-01T08:31:20;99637.37;;;-1.09;65.14
77323;BME280;66384;51.052;9.850;2023-03-01T08:33:52;99637.02;;;-1.01;65.08
77323;BME280;66384;51.052;9.850;2023-03-01T08:36:24;99633.20;;;-0.93;65.17
77323;BME280;66384;51.052;9.850;2023-03-01T08:38:54;99630.46;;;-0.83;64.87
77323;BME280;66384;51.052;9.850;2023-03-01T08:41:24;99628.56;;;-0.74;64.47
77323;BME280;66384;51.052;9.850;2023-03-01T08:43:54;99633.89;;;-0.65;64.41
77323;BME280;66384;51.052;9.850;2023-03-01T08:46:26;99636.34;;;-0.56;64.37
77323;BME280;66384;51.052;9.850;2023-03-01T08:48:56;99628.29;;;-0.47;64.21
77323;BME280;66384;51.052;9.850;2023-03-01T08:51:26;99625.96;;;-0.38;64.17
77323;BME280;66384;51.052;9.850;2023-03-01T08:53:57;99621.95;;;-0.30;63.87
77323;BME280;66384;51.052;9.850;2023-03-01T08:56:26;99623.06;;;-0.23;63.62
77323;BME280;66384;51.052;9.850;2023-03-01T08:58:55;99623.11;;;-0.14;63.23
77323;BME280;66384;51.052;9.850;2023-03-01T09:01:25;99621.17;;;-0.05;63.28
77323;BME280;66384;51.052;9.850;2023-03-01T09:03:54;99622.45;;;0.05;63.28
77323;BME280;66384;51.052;9.850;2023-03-01T09:06:24;99620.55;;;0.15;63.14
77323;BME280;66384;51.052;9.850;2023-03-01T09:08:53;99614.73;;;0.24;62.87
77323;BME280;66384;51.052;9.850;2023-03-01T09:11:23;99609.79;;;0.34;62.42
77323;BME280;66384;51.052;9.850;2023-03-01T09:13:52;99609.24;;;0.46;62.53
77323;BME280;66384;51.052;9.850;2023-03-01T09:16:22;99612.67;;;0.56;62.23
77323;BME280;66384;51.052;9.850;2023-03-01T09:18:53;99608.95;;;0.64;61.73
77323;BME280;66384;51.052;9.850;2023-03-01T09:21:24;99609.42;;;0.72;61.13
77323;BME280;66384;51.052;9.850;2023-03-01T09:23:53;99605.11;;;0.82;61.29
77323;BME280;66384;51.052;9.850;2023-03-01T09:26:23;99603.96;;;0.89;61.00
77323;BME280;66384;51.052;9.850;2023-03-01T09:28:55;99602.95;;;0.97;60.48
77323;BME280;66384;51.052;9.850;2023-03-01T09:31:25;99602.22;;;1.05;60.54
77323;BME280;66384;51.052;9.850;2023-03-01T09:33:55;99600.73;;;1.12;60.52
77323;BME280;66384;51.052;9.850;2023-03-01T09:36:25;99592.40;;;1.21;59.64
77323;BME280;66384;51.052;9.850;2023-03-01T09:38:54;99591.02;;;1.29;59.78
77323;BME280;66384;51.052;9.850;2023-03-01T09:41:48;99589.73;;;1.37;59.01
77323;BME280;66384;51.052;9.850;2023-03-01T09:44:26;99584.48;;;1.46;58.34
77323;BME280;66384;51.052;9.850;2023-03-01T09:46:57;99582.59;;;1.52;58.27
77323;BME280;66384;51.052;9.850;2023-03-01T09:49:29;99580.91;;;1.59;58.34
77323;BME280;66384;51.052;9.850;2023-03-01T09:52:03;99584.26;;;1.65;57.23
77323;BME280;66384;51.052;9.850;2023-03-01T09:54:35;99578.74;;;1.73;57.55
77323;BME280;66384;51.052;9.850;2023-03-01T09:57:15;99571.17;;;1.80;57.16
77323;BME280;66384;51.052;9.850;2023-03-01T09:59:58;99572.79;;;1.89;57.24
77323;BME280;66384;51.052;9.850;2023-03-01T10:02:41;99572.94;;;1.98;57.13
77323;BME280;66384;51.052;9.850;2023-03-01T10:05:28;99570.19;;;2.06;56.55
77323;BME280;66384;51.052;9.850;2023-03-01T10:08:11;99571.91;;;2.16;56.68
77323;BME280;66384;51.052;9.850;2023-03-01T10:10:46;99566.43;;;2.24;56.51
77323;BME280;66384;51.052;9.850;2023-03-01T10:13:19;99563.77;;;2.33;56.63
77323;BME280;66384;51.052;9.850;2023-03-01T10:15:52;99566.40;;;2.40;56.22
77323;BME280;66384;51.052;9.850;2023-03-01T10:18:25;99570.09;;;2.49;55.95
77323;BME280;66384;51.052;9.850;2023-03-01T10:20:58;99565.98;;;2.58;55.87
77323;BME280;66384;51.052;9.850;2023-03-01T10:23:30;99561.88;;;2.67;55.92
77323;BME280;66384;51.052;9.850;2023-03-01T10:26:22;99561.45;;;2.76;55.18
77323;BME280;66384;51.052;9.850;2023-03-01T10:29:03;99561.92;;;2.85;54.96
77323;BME280;66384;51.052;9.850;2023-03-01T10:31:39;99563.13;;;2.92;54.73
77323;BME280;66384;51.052;9.850;2023-03-01T10:34:14;99560.95;;;2.98;54.42
77323;BME280;66384;51.052;9.850;2023-03-01T10:36:47;99555.12;;;3.02;54.14
77323;BME280;66384;51.052;9.850;2023-03-01T10:39:20;99557.87;;;3.07;54.78
77323;BME280;66384;51.052;9.850;2023-03-01T10:42:02;99552.02;;;3.13;54.28
77323;BME280;66384;51.052;9.850;2023-03-01T10:44:45;99551.12;;;3.20;54.34
77323;BME280;66384;51.052;9.850;2023-03-01T10:47:20;99549.50;;;3.29;53.68
77323;BME280;66384;51.052;9.850;2023-03-01T10:50:02;99543.35;;;3.36;53.46
77323;BME280;66384;51.052;9.850;2023-03-01T10:52:34;99537.85;;;3.43;53.16
77323;BME280;66384;51.052;9.850;2023-03-01T10:58:07;99532.92;;;3.55;52.74
77323;BME280;66384;51.052;9.850;2023-03-01T11:00:47;99525.63;;;3.60;52.53
77323;BME280;66384;51.052;9.850;2023-03-01T11:03:20;99525.01;;;3.67;52.17
77323;BME280;66384;51.052;9.850;2023-03-01T11:06:00;99525.79;;;3.74;52.28
77323;BME280;66384;51.052;9.850;2023-03-01T11:08:36;99526.62;;;3.81;52.10
77323;BME280;66384;51.052;9.850;2023-03-01T11:11:15;99523.57;;;3.86;52.03
77323;BME280;66384;51.052;9.850;2023-03-01T11:13:55;99517.65;;;3.92;51.94
77323;BME280;66384;51.052;9.850;2023-03-01T11:16:29;99513.77;;;3.98;51.72
77323;BME280;66384;51.052;9.850;2023-03-01T11:19:04;99510.13;;;4.04;51.35
77323;BME280;66384;51.052;9.850;2023-03-01T11:21:44;99513.33;;;4.12;51.19
77323;BME280;66384;51.052;9.850;2023-03-01T11:24:18;99507.49;;;4.16;51.10
77323;BME280;66384;51.052;9.850;2023-03-01T11:26:52;99507.05;;;4.20;50.70
77323;BME280;66384;51.052;9.850;2023-03-01T11:29:32;99505.25;;;4.26;51.10
77323;BME280;66384;51.052;9.850;2023-03-01T11:32:08;99503.34;;;4.34;51.02
77323;BME280;66384;51.052;9.850;2023-03-01T11:34:45;99500.63;;;4.40;50.65
77323;BME280;66384;51.052;9.850;2023-03-01T11:37:28;99497.92;;;4.45;49.80
77323;BME280;66384;51.052;9.850;2023-03-01T11:40:14;99496.95;;;4.48;49.04
77323;BME280;66384;51.052;9.850;2023-03-01T11:42:50;99498.30;;;4.51;48.98
77323;BME280;66384;51.052;9.850;2023-03-01T11:45:24;99500.58;;;4.58;49.24
77323;BME280;66384;51.052;9.850;2023-03-01T11:48:11;99496.58;;;4.65;48.94
77323;BME280;66384;51.052;9.850;2023-03-01T11:50:49;99495.93;;;4.71;48.62
77323;BME280;66384;51.052;9.850;2023-03-01T11:53:30;99493.89;;;4.76;49.11
77323;BME280;66384;51.052;9.850;2023-03-01T11:56:13;99499.25;;;4.83;48.63
77323;BME280;66384;51.052;9.850;2023-03-01T11:58:59;99497.52;;;4.88;48.10
77323;BME280;66384;51.052;9.850;2023-03-01T12:01:43;99494.68;;;4.92;47.61
77323;BME280;66384;51.052;9.850;2023-03-01T12:04:32;99495.08;;;4.95;47.41
77323;BME280;66384;51.052;9.850;2023-03-01T12:07:08;99489.98;;;5.01;47.80
77323;BME280;66384;51.052;9.850;2023-03-01T12:09:51;99488.64;;;5.08;47.85
77323;BME280;66384;51.052;9.850;2023-03-01T12:12:39;99485.75;;;5.16;47.73
77323;BME280;66384;51.052;9.850;2023-03-01T12:15:34;99481.42;;;5.23;47.38
77323;BME280;66384;51.052;9.850;2023-03-01T12:18:18;99481.11;;;5.29;46.57
77323;BME280;66384;51.052;9.850;2023-03-01T12:20:58;99471.98;;;5.34;46.16
77323;BME280;66384;51.052;9.850;2023-03-01T12:23:51;99463.82;;;5.37;46.32
77323;BME280;66384;51.052;9.850;2023-03-01T12:26:29;99464.16;;;5.43;46.29
77323;BME280;66384;51.052;9.850;2023-03-01T12:29:13;99458.33;;;5.45;45.89
77323;BME280;66384;51.052;9.850;2023-03-01T12:35:10;99445.71;;;5.57;46.09
77323;BME280;66384;51.052;9.850;2023-03-01T12:37:54;99435.95;;;5.65;45.88
77323;BME280;66384;51.052;9.850;2023-03-01T12:40:41;99431.65;;;5.71;45.70
77323;BME280;66384;51.052;9.850;2023-03-01T12:43:26;99430.60;;;5.79;45.85
77323;BME280;66384;51.052;9.850;2023-03-01T12:46:09;99431.04;;;5.87;45.53
77323;BME280;66384;51.052;9.850;2023-03-01T12:48:46;99430.66;;;5.95;45.52
77323;BME280;66384;51.052;9.850;2023-03-01T12:51:22;99432.00;;;6.04;44.62
77323;BME280;66384;51.052;9.850;2023-03-01T12:53:54;99427.90;;;6.10;43.53
77323;BME280;66384;51.052;9.850;2023-03-01T12:56:27;99426.33;;;6.15;43.94
77323;BME280;66384;51.052;9.850;2023-03-01T12:59:03;99426.26;;;6.21;43.66
77323;BME280;66384;51.052;9.850;2023-03-01T13:01:42;99422.98;;;6.26;43.86
77323;BME280;66384;51.052;9.850;2023-03-01T13:04:29;99421.57;;;6.34;43.70
77323;BME280;66384;51.052;9.850;2023-03-01T13:07:10;99419.60;;;6.43;43.82
77323;BME280;66384;51.052;9.850;2023-03-01T13:09:47;99409.77;;;6.50;43.95
77323;BME280;66384;51.052;9.850;2023-03-01T13:12:48;99409.08;;;6.57;43.34
77323;BME280;66384;51.052;9.850;2023-03-01T13:15:35;99416.16;;;6.64;43.78
77323;BME280;66384;51.052;9.850;2023-03-01T13:18:32;99407.77;;;6.74;43.97
77323;BME280;66384;51.052;9.850;2023-03-01T13:21:04;99407.17;;;6.85;44.03
77323;BME280;66384;51.052;9.850;2023-03-01T13:23:38;99404.65;;;6.93;43.15
77323;BME280;66384;51.052;9.850;2023-03-01T13:26:16;99403.79;;;6.99;42.11
77323;BME280;66384;51.052;9.850;2023-03-01T13:28:57;99395.52;;;7.08;42.06
77323;BME280;66384;51.052;9.850;2023-03-01T13:32:00;99395.22;;;7.19;42.43
77323;BME280;66384;51.052;9.850;2023-03-01T13:34:55;99396.38;;;7.32;41.49
77323;BME280;66384;51.052;9.850;2023-03-01T13:37:30;99392.70;;;7.40;40.87
77323;BME280;66384;51.052;9.850;2023-03-01T13:40:03;99391.02;;;7.48;40.71